sensor_id;sensor_type;location;lat;lon;timestamp;temperature;humidity
48589;DHT22;34369;51.174;6.738;2022-08-20T00:01:29;21.10;77.80
48589;DHT22;34369;51.174;6.738;2022-08-20T00:06:37;21.00;77.50
48589;DHT22;34369;51.174;6.738;2022-08-20T00:09:10;21.10;78.60
48589;DHT22;34369;51.174;6.738;2022-08-20T00:11:42;21.00;78.50
48589;DHT22;34369;51.174;6.738;2022-08-20T00:14:14;21.00;78.50
48589;DHT22;34369;51.174;6.738;2022-08-20T00:16:46;21.00;78.90
48589;DHT22;34369;51.174;6.738;2022-08-20T00:19:18;20.90;79.30
48589;DHT22;34369;51.174;6.738;2022-08-20T00:21:50;20.90;79.50
48589;DHT22;34369;51.174;6.738;2022-08-20T00:24:23;20.90;79.50
48589;DHT22;34369;51.174;6.738;2022-08-20T00:26:55;20.90;80.10
48589;DHT22;34369;51.174;6.738;2022-08-20T00:29:27;20.80;80.40
48589;DHT22;34369;51.174;6.738;2022-08-20T00:31:59;20.80;80.60
48589;DHT22;34369;51.174;6.738;2022-08-20T00:34:31;20.80;81.00
48589;DHT22;34369;51.174;6.738;2022-08-20T00:37:03;20.70;81.00
48589;DHT22;34369;51.174;6.738;2022-08-20T00:39:36;20.70;81.30
48589;DHT22;34369;51.174;6.738;2022-08-20T00:42:08;20.60;81.00
48589;DHT22;34369;51.174;6.738;2022-08-20T00:44:44;20.70;81.90
48589;DHT22;34369;51.174;6.738;2022-08-20T00:47:16;20.60;81.60
48589;DHT22;34369;51.174;6.738;2022-08-20T00:49:49;20.60;82.40
48589;DHT22;34369;51.174;6.738;2022-08-20T00:52:21;20.50;82.60
48589;DHT22;34369;51.174;6.738;2022-08-20T00:54:57;20.50;83.00
48589;DHT22;34369;51.174;6.738;2022-08-20T00:57:34;20.50;83.50
48589;DHT22;34369;51.174;6.738;2022-08-20T01:00:15;20.50;83.40
48589;DHT22;34369;51.174;6.738;2022-08-20T01:02:49;20.40;83.90
48589;DHT22;34369;51.174;6.738;2022-08-20T01:05:22;20.40;84.40
48589;DHT22;34369;51.174;6.738;2022-08-20T01:07:54;20.40;84.10
48589;DHT22;34369;51.174;6.738;2022-08-20T01:10:32;20.30;84.30
48589;DHT22;34369;51.174;6.738;2022-08-20T01:13:08;20.30;84.50
48589;DHT22;34369;51.174;6.738;2022-08-20T01:15:42;20.30;84.40
48589;DHT22;34369;51.174;6.738;2022-08-20T01:18:18;20.30;84.40
48589;DHT22;34369;51.174;6.738;2022-08-20T01:20:54;20.30;84.20
48589;DHT22;34369;51.174;6.738;2022-08-20T01:23:29;20.20;84.70
48589;DHT22;34369;51.174;6.738;2022-08-20T01:26:07;20.20;84.50
48589;DHT22;34369;51.174;6.738;2022-08-20T01:28:45;20.10;84.20
48589;DHT22;34369;51.174;6.738;2022-08-20T01:31:21;20.20;84.70
48589;DHT22;34369;51.174;6.738;2022-08-20T01:33:55;20.10;84.70
48589;DHT22;34369;51.174;6.738;2022-08-20T01:36:33;20.10;84.80
48589;DHT22;34369;51.174;6.738;2022-08-20T01:39:09;20.00;85.40
48589;DHT22;34369;51.174;6.738;2022-08-20T01:41:48;20.00;85.40
48589;DHT22;34369;51.174;6.738;2022-08-20T01:44:24;20.00;85.40
48589;DHT22;34369;51.174;6.738;2022-08-20T01:46:56;20.00;84.80
48589;DHT22;34369;51.174;6.738;2022-08-20T01:49:31;19.90;84.60
48589;DHT22;34369;51.174;6.738;2022-08-20T01:52:07;19.90;84.50
48589;DHT22;34369;51.174;6.738;2022-08-20T01:54:39;19.90;85.30
48589;DHT22;34369;51.174;6.738;2022-08-20T01:57:15;19.90;85.20
48589;DHT22;34369;51.174;6.738;2022-08-20T01:59:49;19.80;85.40
48589;DHT22;34369;51.174;6.738;2022-08-20T02:02:21;19.80;85.50
48589;DHT22;34369;51.174;6.738;2022-08-20T02:07:30;19.80;85.30
48589;DHT22;34369;51.174;6.738;2022-08-20T02:10:04;19.70;85.50
48589;DHT22;34369;51.174;6.738;2022-08-20T02:12:38;19.70;86.20
48589;DHT22;34369;51.174;6.738;2022-08-20T02:15:11;19.70;86.30
48589;DHT22;34369;51.174;6.738;2022-08-20T02:17:43;19.70;86.20
48589;DHT22;34369;51.174;6.738;2022-08-20T02:20:18;19.70;86.20
48589;DHT22;34369;51.174;6.738;2022-08-20T02:22:52;19.60;86.30
48589;DHT22;34369;51.174;6.738;2022-08-20T02:25:28;19.70;86.10
48589;DHT22;34369;51.174;6.738;2022-08-20T02:28:06;19.50;85.40
48589;DHT22;34369;51.174;6.738;2022-08-20T02:30:43;19.50;86.30
48589;DHT22;34369;51.174;6.738;2022-08-20T02:33:17;19.50;86.10
48589;DHT22;34369;51.174;6.738;2022-08-20T02:35:51;19.50;86.10
48589;DHT22;34369;51.174;6.738;2022-08-20T02:38:25;19.50;86.00
48589;DHT22;34369;51.174;6.738;2022-08-20T02:40:57;19.50;86.40
48589;DHT22;34369;51.174;6.738;2022-08-20T02:43:31;19.40;86.70
48589;DHT22;34369;51.174;6.738;2022-08-20T02:46:04;19.30;86.30
48589;DHT22;34369;51.174;6.738;2022-08-20T02:48:36;19.40;86.90
48589;DHT22;34369;51.174;6.738;2022-08-20T02:51:09;19.30;86.80
48589;DHT22;34369;51.174;6.738;2022-08-20T02:53:41;22.00;88.80
48589;DHT22;34369;51.174;6.738;2022-08-20T02:56:13;19.30;87.30
48589;DHT22;34369;51.174;6.738;2022-08-20T02:58:47;19.30;88.00
48589;DHT22;34369;51.174;6.738;2022-08-20T03:01:19;19.40;88.00
48589;DHT22;34369;51.174;6.738;2022-08-20T03:03:52;19.30;88.20
48589;DHT22;34369;51.174;6.738;2022-08-20T03:06:26;19.30;88.10
48589;DHT22;34369;51.174;6.738;2022-08-20T03:08:58;19.30;88.20
48589;DHT22;34369;51.174;6.738;2022-08-20T03:11:30;19.30;88.40
48589;DHT22;34369;51.174;6.738;2022-08-20T03:14:04;19.30;88.40
48589;DHT22;34369;51.174;6.738;2022-08-20T03:16:36;19.40;88.30
48589;DHT22;34369;51.174;6.738;2022-08-20T03:19:07;19.30;88.40
48589;DHT22;34369;51.174;6.738;2022-08-20T03:21:40;19.30;88.40
48589;DHT22;34369;51.174;6.738;2022-08-20T03:24:12;19.30;88.80
48589;DHT22;34369;51.174;6.738;2022-08-20T03:26:44;19.30;88.70
48589;DHT22;34369;51.174;6.738;2022-08-20T03:29:17;19.40;89.00
48589;DHT22;34369;51.174;6.738;2022-08-20T03:31:49;19.40;89.20
48589;DHT22;34369;51.174;6.738;2022-08-20T03:34:21;19.30;88.80
48589;DHT22;34369;51.174;6.738;2022-08-20T03:36:53;19.40;89.20
48589;DHT22;34369;51.174;6.738;2022-08-20T03:39:25;19.40;89.10
48589;DHT22;34369;51.174;6.738;2022-08-20T03:41:57;19.30;88.90
48589;DHT22;34369;51.174;6.738;2022-08-20T03:44:31;19.40;88.90
48589;DHT22;34369;51.174;6.738;2022-08-20T03:47:04;19.40;89.20
48589;DHT22;34369;51.174;6.738;2022-08-20T03:49:38;19.40;89.30
48589;DHT22;34369;51.174;6.738;2022-08-20T03:52:10;19.40;89.20
48589;DHT22;34369;51.174;6.738;2022-08-20T03:54:42;19.40;89.20
48589;DHT22;34369;51.174;6.738;2022-08-20T03:57:15;19.50;89.20
48589;DHT22;34369;51.174;6.738;2022-08-20T03:59:49;19.50;89.30
48589;DHT22;34369;51.174;6.738;2022-08-20T04:04:54;19.40;88.90
48589;DHT22;34369;51.174;6.738;2022-08-20T04:07:26;19.40;89.30
48589;DHT22;34369;51.174;6.738;2022-08-20T04:09:58;19.40;89.30
48589;DHT22;34369;51.174;6.738;2022-08-20T04:12:30;19.50;89.40
48589;DHT22;34369;51.174;6.738;2022-08-20T04:15:04;19.50;89.50
48589;DHT22;34369;51.174;6.738;2022-08-20T04:17:39;19.50;89.70
48589;DHT22;34369;51.174;6.738;2022-08-20T04:20:15;19.40;88.90
48589;DHT22;34369;51.174;6.738;2022-08-20T04:22:54;19.40;89.60
48589;DHT22;34369;51.174;6.738;2022-08-20T04:25:28;19.50;88.90
48589;DHT22;34369;51.174;6.738;2022-08-20T04:28:04;19.40;89.70
48589;DHT22;34369;51.174;6.738;2022-08-20T04:30:39;19.50;89.30
48589;DHT22;34369;51.174;6.738;2022-08-20T04:38:19;19.40;89.30
48589;DHT22;34369;51.174;6.738;2022-08-20T04:40:53;19.30;89.80
48589;DHT22;34369;51.174;6.738;2022-08-20T04:43:30;19.40;89.80
48589;DHT22;34369;51.174;6.738;2022-08-20T04:46:06;19.40;90.00
48589;DHT22;34369;51.174;6.738;2022-08-20T04:51:12;19.40;89.20
48589;DHT22;34369;51.174;6.738;2022-08-20T04:53:45;19.40;90.00
48589;DHT22;34369;51.174;6.738;2022-08-20T04:58:55;19.40;89.90
48589;DHT22;34369;51.174;6.738;2022-08-20T05:01:30;19.40;90.30
48589;DHT22;34369;51.174;6.738;2022-08-20T05:06:35;19.30;90.10
48589;DHT22;34369;51.174;6.738;2022-08-20T05:09:08;19.40;90.50
48589;DHT22;34369;51.174;6.738;2022-08-20T05:11:40;19.40;90.50
48589;DHT22;34369;51.174;6.738;2022-08-20T05:14:12;19.40;90.30
48589;DHT22;34369;51.174;6.738;2022-08-20T05:16:46;19.40;90.60
48589;DHT22;34369;51.174;6.738;2022-08-20T05:19:20;19.40;90.60
48589;DHT22;34369;51.174;6.738;2022-08-20T05:21:52;19.40;90.50
48589;DHT22;34369;51.174;6.738;2022-08-20T05:24:24;19.40;90.50
48589;DHT22;34369;51.174;6.738;2022-08-20T05:26:58;19.40;90.20
48589;DHT22;34369;51.174;6.738;2022-08-20T05:29:33;19.40;90.40
48589;DHT22;34369;51.174;6.738;2022-08-20T05:32:07;19.40;90.30
48589;DHT22;34369;51.174;6.738;2022-08-20T05:34:41;19.40;90.30
48589;DHT22;34369;51.174;6.738;2022-08-20T05:37:13;19.40;90.20
48589;DHT22;34369;51.174;6.738;2022-08-20T05:39:47;19.40;90.10
48589;DHT22;34369;51.174;6.738;2022-08-20T05:42:20;19.40;90.00
48589;DHT22;34369;51.174;6.738;2022-08-20T05:47:29;19.30;89.90
48589;DHT22;34369;51.174;6.738;2022-08-20T05:50:03;19.30;90.20
48589;DHT22;34369;51.174;6.738;2022-08-20T05:55:10;19.30;90.10
48589;DHT22;34369;51.174;6.738;2022-08-20T05:57:44;19.30;90.40
48589;DHT22;34369;51.174;6.738;2022-08-20T06:00:17;19.30;90.20
48589;DHT22;34369;51.174;6.738;2022-08-20T06:02:51;19.30;90.50
48589;DHT22;34369;51.174;6.738;2022-08-20T06:05:45;19.30;90.60
48589;DHT22;34369;51.174;6.738;2022-08-20T06:08:17;19.30;90.50
48589;DHT22;34369;51.174;6.738;2022-08-20T06:10:50;19.30;90.70
48589;DHT22;34369;51.174;6.738;2022-08-20T06:13:23;19.30;90.70
48589;DHT22;34369;51.174;6.738;2022-08-20T06:15:56;19.30;90.80
48589;DHT22;34369;51.174;6.738;2022-08-20T06:18:30;19.30;90.90
48589;DHT22;34369;51.174;6.738;2022-08-20T06:21:02;19.30;91.00
48589;DHT22;34369;51.174;6.738;2022-08-20T06:26:08;19.40;90.70
48589;DHT22;34369;51.174;6.738;2022-08-20T06:28:40;19.30;90.80
48589;DHT22;34369;51.174;6.738;2022-08-20T06:31:13;19.40;90.70
48589;DHT22;34369;51.174;6.738;2022-08-20T06:33:46;19.40;90.70
48589;DHT22;34369;51.174;6.738;2022-08-20T06:36:19;19.40;90.50
48589;DHT22;34369;51.174;6.738;2022-08-20T06:38:51;19.40;90.70
48589;DHT22;34369;51.174;6.738;2022-08-20T06:43:56;19.40;90.40
48589;DHT22;34369;51.174;6.738;2022-08-20T06:46:30;19.40;90.50
48589;DHT22;34369;51.174;6.738;2022-08-20T06:49:05;19.40;90.50
48589;DHT22;34369;51.174;6.738;2022-08-20T06:51:38;19.40;90.60
48589;DHT22;34369;51.174;6.738;2022-08-20T06:54:10;19.40;90.20
48589;DHT22;34369;51.174;6.738;2022-08-20T06:56:42;19.30;90.40
48589;DHT22;34369;51.174;6.738;2022-08-20T06:59:14;19.40;90.60
48589;DHT22;34369;51.174;6.738;2022-08-20T07:01:47;19.40;90.20
48589;DHT22;34369;51.174;6.738;2022-08-20T07:04:21;19.40;90.10
48589;DHT22;34369;51.174;6.738;2022-08-20T07:06:54;19.40;90.00
48589;DHT22;34369;51.174;6.738;2022-08-20T07:09:27;19.40;90.00
48589;DHT22;34369;51.174;6.738;2022-08-20T07:11:59;19.30;89.90
48589;DHT22;34369;51.174;6.738;2022-08-20T07:14:31;19.30;90.00
48589;DHT22;34369;51.174;6.738;2022-08-20T07:17:04;19.20;90.00
48589;DHT22;34369;51.174;6.738;2022-08-20T07:19:38;19.20;90.10
48589;DHT22;34369;51.174;6.738;2022-08-20T07:22:10;19.20;89.80
48589;DHT22;34369;51.174;6.738;2022-08-20T07:24:44;19.20;90.20
48589;DHT22;34369;51.174;6.738;2022-08-20T07:27:20;19.20;90.10
48589;DHT22;34369;51.174;6.738;2022-08-20T07:29:53;19.20;90.00
48589;DHT22;34369;51.174;6.738;2022-08-20T07:32:43;19.30;90.10
48589;DHT22;34369;51.174;6.738;2022-08-20T07:35:18;19.30;90.10
48589;DHT22;34369;51.174;6.738;2022-08-20T07:37:51;19.20;90.00
48589;DHT22;34369;51.174;6.738;2022-08-20T07:40:26;19.20;89.90
48589;DHT22;34369;51.174;6.738;2022-08-20T07:43:00;19.30;90.30
48589;DHT22;34369;51.174;6.738;2022-08-20T07:45:33;19.30;90.30
48589;DHT22;34369;51.174;6.738;2022-08-20T07:48:06;19.40;90.50
48589;DHT22;34369;51.174;6.738;2022-08-20T07:50:41;19.40;90.60
48589;DHT22;34369;51.174;6.738;2022-08-20T07:53:13;19.50;90.40
48589;DHT22;34369;51.174;6.738;2022-08-20T07:55:46;19.60;90.20
48589;DHT22;34369;51.174;6.738;2022-08-20T07:58:20;19.70;89.10
48589;DHT22;34369;51.174;6.738;2022-08-20T08:00:53;19.80;89.30
48589;DHT22;34369;51.174;6.738;2022-08-20T08:03:25;19.80;88.90
48589;DHT22;34369;51.174;6.738;2022-08-20T08:06:00;19.80;88.20
48589;DHT22;34369;51.174;6.738;2022-08-20T08:08:32;19.80;89.00
48589;DHT22;34369;51.174;6.738;2022-08-20T08:11:05;19.80;88.40
48589;DHT22;34369;51.174;6.738;2022-08-20T08:13:39;19.90;88.70
48589;DHT22;34369;51.174;6.738;2022-08-20T08:16:13;20.00;87.40
48589;DHT22;34369;51.174;6.738;2022-08-20T08:18:48;20.00;87.00
48589;DHT22;34369;51.174;6.738;2022-08-20T08:21:27;20.00;87.30
48589;DHT22;34369;51.174;6.738;2022-08-20T08:24:05;20.00;87.00
48589;DHT22;34369;51.174;6.738;2022-08-20T08:26:38;20.10;87.40
48589;DHT22;34369;51.174;6.738;2022-08-20T08:29:10;20.10;86.90
48589;DHT22;34369;51.174;6.738;2022-08-20T08:31:43;20.10;86.00
48589;DHT22;34369;51.174;6.738;2022-08-20T08:34:15;20.10;84.70
48589;DHT22;34369;51.174;6.738;2022-08-20T08:36:50;20.20;85.20
48589;DHT22;34369;51.174;6.738;2022-08-20T08:39:22;20.10;84.90
48589;DHT22;34369;51.174;6.738;2022-08-20T08:41:54;20.10;85.10
48589;DHT22;34369;51.174;6.738;2022-08-20T08:44:32;20.10;85.20
48589;DHT22;34369;51.174;6.738;2022-08-20T08:47:14;20.10;84.70
48589;DHT22;34369;51.174;6.738;2022-08-20T08:49:51;20.00;85.10
48589;DHT22;34369;51.174;6.738;2022-08-20T08:52:28;20.00;85.20
48589;DHT22;34369;51.174;6.738;2022-08-20T08:55:06;20.00;84.60
48589;DHT22;34369;51.174;6.738;2022-08-20T08:57:42;20.00;85.40
48589;DHT22;34369;51.174;6.738;2022-08-20T09:00:17;20.00;85.40
48589;DHT22;34369;51.174;6.738;2022-08-20T09:02:54;20.00;85.30
48589;DHT22;34369;51.174;6.738;2022-08-20T09:05:33;20.10;85.10
48589;DHT22;34369;51.174;6.738;2022-08-20T09:08:12;20.00;84.80
48589;DHT22;34369;51.174;6.738;2022-08-20T09:10:45;20.00;85.10
48589;DHT22;34369;51.174;6.738;2022-08-20T09:13:17;20.00;84.60
48589;DHT22;34369;51.174;6.738;2022-08-20T09:15:49;20.00;84.50
48589;DHT22;34369;51.174;6.738;2022-08-20T09:18:21;20.00;83.80
48589;DHT22;34369;51.174;6.738;2022-08-20T09:20:54;20.00;84.00
48589;DHT22;34369;51.174;6.738;2022-08-20T09:23:28;19.90;84.00
48589;DHT22;34369;51.174;6.738;2022-08-20T09:26:00;19.90;83.70
48589;DHT22;34369;51.174;6.738;2022-08-20T09:28:33;19.90;84.00
48589;DHT22;34369;51.174;6.738;2022-08-20T09:31:06;19.90;84.20
48589;DHT22;34369;51.174;6.738;2022-08-20T09:33:38;19.90;84.50
48589;DHT22;34369;51.174;6.738;2022-08-20T09:36:10;19.90;83.90
48589;DHT22;34369;51.174;6.738;2022-08-20T09:38:44;19.90;84.40
48589;DHT22;34369;51.174;6.738;2022-08-20T09:41:16;19.90;84.70
48589;DHT22;34369;51.174;6.738;2022-08-20T09:46:21;20.00;84.50
48589;DHT22;34369;51.174;6.738;2022-08-20T09:48:53;20.00;84.80
48589;DHT22;34369;51.174;6.738;2022-08-20T09:51:26;20.20;84.60
48589;DHT22;34369;51.174;6.738;2022-08-20T09:54:00;20.20;84.70
48589;DHT22;34369;51.174;6.738;2022-08-20T09:56:33;20.30;84.10
48589;DHT22;34369;51.174;6.738;2022-08-20T09:59:06;20.30;83.70
48589;DHT22;34369;51.174;6.738;2022-08-20T10:04:13;20.40;82.70
48589;DHT22;34369;51.174;6.738;2022-08-20T10:06:46;20.40;83.30
48589;DHT22;34369;51.174;6.738;2022-08-20T10:09:20;20.40;83.00
48589;DHT22;34369;51.174;6.738;2022-08-20T10:11:52;20.40;82.80
48589;DHT22;34369;51.174;6.738;2022-08-20T10:14:24;20.50;82.90
48589;DHT22;34369;51.174;6.738;2022-08-20T10:16:56;20.50;83.10
48589;DHT22;34369;51.174;6.738;2022-08-20T10:19:30;20.60;82.30
48589;DHT22;34369;51.174;6.738;2022-08-20T10:22:02;20.50;81.60
48589;DHT22;34369;51.174;6.738;2022-08-20T10:24:36;20.60;81.80
48589;DHT22;34369;51.174;6.738;2022-08-20T10:27:08;20.60;81.80
48589;DHT22;34369;51.174;6.738;2022-08-20T10:29:40;20.60;81.70
48589;DHT22;34369;51.174;6.738;2022-08-20T10:32:14;20.60;81.70
48589;DHT22;34369;51.174;6.738;2022-08-20T10:37:22;20.60;81.90
48589;DHT22;34369;51.174;6.738;2022-08-20T10:39:56;20.70;82.40
48589;DHT22;34369;51.174;6.738;2022-08-20T10:42:28;20.80;82.30
48589;DHT22;34369;51.174;6.738;2022-08-20T10:45:00;20.80;82.00
48589;DHT22;34369;51.174;6.738;2022-08-20T10:47:32;20.80;81.80
48589;DHT22;34369;51.174;6.738;2022-08-20T10:50:07;20.80;81.50
48589;DHT22;34369;51.174;6.738;2022-08-20T10:52:42;20.80;80.90
48589;DHT22;34369;51.174;6.738;2022-08-20T10:55:15;20.90;80.70
48589;DHT22;34369;51.174;6.738;2022-08-20T10:57:50;20.90;80.50
48589;DHT22;34369;51.174;6.738;2022-08-20T11:00:22;20.90;79.80
48589;DHT22;34369;51.174;6.738;2022-08-20T11:02:54;20.80;80.30
48589;DHT22;34369;51.174;6.738;2022-08-20T11:05:26;20.80;79.40
48589;DHT22;34369;51.174;6.738;2022-08-20T11:08:06;20.80;79.40
48589;DHT22;34369;51.174;6.738;2022-08-20T11:10:47;20.70;79.90
48589;DHT22;34369;51.174;6.738;2022-08-20T11:13:20;20.80;80.30
48589;DHT22;34369;51.174;6.738;2022-08-20T11:18:24;20.80;79.80
48589;DHT22;34369;51.174;6.738;2022-08-20T11:20:56;20.80;80.10
48589;DHT22;34369;51.174;6.738;2022-08-20T11:26:02;20.80;79.50
48589;DHT22;34369;51.174;6.738;2022-08-20T11:33:40;21.00;80.10
48589;DHT22;34369;51.174;6.738;2022-08-20T11:38:55;21.50;80.80
48589;DHT22;34369;51.174;6.738;2022-08-20T11:41:29;21.70;78.80
48589;DHT22;34369;51.174;6.738;2022-08-20T11:44:01;22.00;78.10
48589;DHT22;34369;51.174;6.738;2022-08-20T11:49:14;22.10;77.60
48589;DHT22;34369;51.174;6.738;2022-08-20T11:51:53;22.30;78.20
48589;DHT22;34369;51.174;6.738;2022-08-20T11:54:37;22.50;76.30
48589;DHT22;34369;51.174;6.738;2022-08-20T11:57:19;22.80;76.50
48589;DHT22;34369;51.174;6.738;2022-08-20T12:00:00;23.00;73.90
48589;DHT22;34369;51.174;6.738;2022-08-20T12:02:35;23.30;71.80
48589;DHT22;34369;51.174;6.738;2022-08-20T12:05:09;23.30;71.60
48589;DHT22;34369;51.174;6.738;2022-08-20T12:07:51;23.40;71.50
48589;DHT22;34369;51.174;6.738;2022-08-20T12:10:43;23.50;70.00
48589;DHT22;34369;51.174;6.738;2022-08-20T12:13:24;23.50;69.50
48589;DHT22;34369;51.174;6.738;2022-08-20T12:16:20;23.60;68.20
48589;DHT22;34369;51.174;6.738;2022-08-20T12:19:00;23.60;69.20
48589;DHT22;34369;51.174;6.738;2022-08-20T12:27:51;23.80;66.40
48589;DHT22;34369;51.174;6.738;2022-08-20T12:30:25;23.80;67.30
48589;DHT22;34369;51.174;6.738;2022-08-20T12:32:57;23.80;67.70
48589;DHT22;34369;51.174;6.738;2022-08-20T12:35:30;23.70;67.80
48589;DHT22;34369;51.174;6.738;2022-08-20T12:38:03;23.70;67.10
48589;DHT22;34369;51.174;6.738;2022-08-20T12:40:36;23.80;66.40
48589;DHT22;34369;51.174;6.738;2022-08-20T12:43:08;23.80;65.80
48589;DHT22;34369;51.174;6.738;2022-08-20T12:45:43;23.90;65.60
48589;DHT22;34369;51.174;6.738;2022-08-20T12:48:15;23.90;65.90
48589;DHT22;34369;51.174;6.738;2022-08-20T12:50:48;24.10;66.70
48589;DHT22;34369;51.174;6.738;2022-08-20T12:53:22;24.20;65.90
48589;DHT22;34369;51.174;6.738;2022-08-20T12:55:54;24.30;64.90
48589;DHT22;34369;51.174;6.738;2022-08-20T12:58:27;24.40;64.60
48589;DHT22;34369;51.174;6.738;2022-08-20T13:01:01;24.50;64.30
48589;DHT22;34369;51.174;6.738;2022-08-20T13:03:33;24.50;64.10
48589;DHT22;34369;51.174;6.738;2022-08-20T13:06:06;24.60;63.40
48589;DHT22;34369;51.174;6.738;2022-08-20T13:08:38;24.70;61.80
48589;DHT22;34369;51.174;6.738;2022-08-20T13:11:11;24.70;61.80
48589;DHT22;34369;51.174;6.738;2022-08-20T13:13:44;24.80;62.40
48589;DHT22;34369;51.174;6.738;2022-08-20T13:16:19;24.90;61.90
48589;DHT22;34369;51.174;6.738;2022-08-20T13:18:51;25.10;61.70
48589;DHT22;34369;51.174;6.738;2022-08-20T13:21:24;25.20;60.80
48589;DHT22;34369;51.174;6.738;2022-08-20T13:23:57;25.30;61.30
48589;DHT22;34369;51.174;6.738;2022-08-20T13:26:29;25.40;60.80
48589;DHT22;34369;51.174;6.738;2022-08-20T13:29:01;25.50;60.20
48589;DHT22;34369;51.174;6.738;2022-08-20T13:31:35;25.60;59.70
48589;DHT22;34369;51.174;6.738;2022-08-20T13:34:07;25.70;59.00
48589;DHT22;34369;51.174;6.738;2022-08-20T13:36:40;25.80;58.90
48589;DHT22;34369;51.174;6.738;2022-08-20T13:39:12;25.80;58.30
48589;DHT22;34369;51.174;6.738;2022-08-20T13:41:44;25.80;57.50
48589;DHT22;34369;51.174;6.738;2022-08-20T13:44:17;25.80;58.20
48589;DHT22;34369;51.174;6.738;2022-08-20T13:46:50;25.90;57.20
48589;DHT22;34369;51.174;6.738;2022-08-20T13:49:23;25.90;55.80
48589;DHT22;34369;51.174;6.738;2022-08-20T13:51:56;25.90;57.30
48589;DHT22;34369;51.174;6.738;2022-08-20T13:54:28;25.90;56.80
48589;DHT22;34369;51.174;6.738;2022-08-20T13:57:07;25.90;57.30
48589;DHT22;34369;51.174;6.738;2022-08-20T13:59:43;26.00;55.40
48589;DHT22;34369;51.174;6.738;2022-08-20T14:02:19;26.10;55.50
48589;DHT22;34369;51.174;6.738;2022-08-20T14:04:52;26.10;55.20
48589;DHT22;34369;51.174;6.738;2022-08-20T14:07:27;26.10;54.50
48589;DHT22;34369;51.174;6.738;2022-08-20T14:10:02;26.00;54.60
48589;DHT22;34369;51.174;6.738;2022-08-20T14:12:36;25.90;55.00
48589;DHT22;34369;51.174;6.738;2022-08-20T14:15:10;25.90;55.40
48589;DHT22;34369;51.174;6.738;2022-08-20T14:17:50;25.80;54.30
48589;DHT22;34369;51.174;6.738;2022-08-20T14:20:26;25.90;52.00
48589;DHT22;34369;51.174;6.738;2022-08-20T14:23:01;25.90;54.20
48589;DHT22;34369;51.174;6.738;2022-08-20T14:25:34;25.90;53.90
48589;DHT22;34369;51.174;6.738;2022-08-20T14:28:11;25.90;53.20
48589;DHT22;34369;51.174;6.738;2022-08-20T14:30:44;26.00;52.50
48589;DHT22;34369;51.174;6.738;2022-08-20T14:33:20;26.10;53.60
48589;DHT22;34369;51.174;6.738;2022-08-20T14:35:53;26.10;52.60
48589;DHT22;34369;51.174;6.738;2022-08-20T14:38:25;26.10;53.20
48589;DHT22;34369;51.174;6.738;2022-08-20T14:40:57;26.10;54.20
48589;DHT22;34369;51.174;6.738;2022-08-20T14:43:30;26.20;53.50
48589;DHT22;34369;51.174;6.738;2022-08-20T14:46:03;26.20;53.80
48589;DHT22;34369;51.174;6.738;2022-08-20T14:48:37;26.20;53.20
48589;DHT22;34369;51.174;6.738;2022-08-20T14:51:09;26.30;52.50
48589;DHT22;34369;51.174;6.738;2022-08-20T14:53:42;26.30;53.10
48589;DHT22;34369;51.174;6.738;2022-08-20T14:56:16;26.40;53.10
48589;DHT22;34369;51.174;6.738;2022-08-20T14:58:48;26.50;52.20
48589;DHT22;34369;51.174;6.738;2022-08-20T15:01:23;26.60;52.80
48589;DHT22;34369;51.174;6.738;2022-08-20T15:03:56;26.60;52.80
48589;DHT22;34369;51.174;6.738;2022-08-20T15:06:28;26.70;52.80
48589;DHT22;34369;51.174;6.738;2022-08-20T15:09:01;26.70;52.50
48589;DHT22;34369;51.174;6.738;2022-08-20T15:11:34;26.70;52.60
48589;DHT22;34369;51.174;6.738;2022-08-20T15:14:09;26.80;52.20
48589;DHT22;34369;51.174;6.738;2022-08-20T15:16:41;26.90;51.70
48589;DHT22;34369;51.174;6.738;2022-08-20T15:19:17;27.00;51.30
48589;DHT22;34369;51.174;6.738;2022-08-20T15:21:49;27.00;52.00
48589;DHT22;34369;51.174;6.738;2022-08-20T15:24:21;27.00;51.20
48589;DHT22;34369;51.174;6.738;2022-08-20T15:26:53;27.00;51.50
48589;DHT22;34369;51.174;6.738;2022-08-20T15:29:25;27.00;50.80
48589;DHT22;34369;51.174;6.738;2022-08-20T15:31:57;26.90;50.80
48589;DHT22;34369;51.174;6.738;2022-08-20T15:34:31;26.90;50.60
48589;DHT22;34369;51.174;6.738;2022-08-20T15:37:08;26.90;50.90
48589;DHT22;34369;51.174;6.738;2022-08-20T15:39:43;26.90;51.10
48589;DHT22;34369;51.174;6.738;2022-08-20T15:42:17;27.00;50.40
48589;DHT22;34369;51.174;6.738;2022-08-20T15:44:50;27.00;49.30
48589;DHT22;34369;51.174;6.738;2022-08-20T15:47:25;27.00;50.00
48589;DHT22;34369;51.174;6.738;2022-08-20T15:50:03;27.00;49.90
48589;DHT22;34369;51.174;6.738;2022-08-20T15:52:40;27.00;50.10
48589;DHT22;34369;51.174;6.738;2022-08-20T15:55:15;27.00;49.30
48589;DHT22;34369;51.174;6.738;2022-08-20T15:57:54;27.00;49.80
48589;DHT22;34369;51.174;6.738;2022-08-20T16:00:36;27.00;48.40
48589;DHT22;34369;51.174;6.738;2022-08-20T16:03:31;27.00;48.50
48589;DHT22;34369;51.174;6.738;2022-08-20T16:06:15;27.00;48.00
48589;DHT22;34369;51.174;6.738;2022-08-20T16:09:00;27.10;47.90
48589;DHT22;34369;51.174;6.738;2022-08-20T16:11:52;27.10;47.90
48589;DHT22;34369;51.174;6.738;2022-08-20T16:14:33;27.10;48.60
48589;DHT22;34369;51.174;6.738;2022-08-20T16:17:12;27.10;47.80
48589;DHT22;34369;51.174;6.738;2022-08-20T16:19:51;27.10;47.50
48589;DHT22;34369;51.174;6.738;2022-08-20T16:22:31;27.10;47.10
48589;DHT22;34369;51.174;6.738;2022-08-20T16:25:04;27.10;47.90
48589;DHT22;34369;51.174;6.738;2022-08-20T16:27:48;27.00;47.30
48589;DHT22;34369;51.174;6.738;2022-08-20T16:30:36;27.00;45.40
48589;DHT22;34369;51.174;6.738;2022-08-20T16:33:17;26.90;46.50
48589;DHT22;34369;51.174;6.738;2022-08-20T16:35:56;26.90;47.00
48589;DHT22;34369;51.174;6.738;2022-08-20T16:38:40;26.90;47.10
48589;DHT22;34369;51.174;6.738;2022-08-20T16:41:20;26.80;47.20
48589;DHT22;34369;51.174;6.738;2022-08-20T16:43:59;26.80;46.90
48589;DHT22;34369;51.174;6.738;2022-08-20T16:46:38;26.80;46.40
48589;DHT22;34369;51.174;6.738;2022-08-20T16:49:13;26.70;46.30
48589;DHT22;34369;51.174;6.738;2022-08-20T16:51:48;26.70;46.70
48589;DHT22;34369;51.174;6.738;2022-08-20T16:54:22;26.60;46.50
48589;DHT22;34369;51.174;6.738;2022-08-20T16:56:58;26.60;46.60
48589;DHT22;34369;51.174;6.738;2022-08-20T16:59:32;26.40;46.20
48589;DHT22;34369;51.174;6.738;2022-08-20T17:02:07;26.40;47.20
48589;DHT22;34369;51.174;6.738;2022-08-20T17:04:42;26.30;47.10
48589;DHT22;34369;51.174;6.738;2022-08-20T17:07:24;26.10;47.50
48589;DHT22;34369;51.174;6.738;2022-08-20T17:10:10;26.00;47.90
48589;DHT22;34369;51.174;6.738;2022-08-20T17:12:45;25.80;47.90
48589;DHT22;34369;51.174;6.738;2022-08-20T17:15:26;25.70;48.20